createdAt,value
2022-11-27T00:01:12.458Z,8.75
2022-11-27T00:03:40.273Z,10.27
2022-11-27T00:06:07.951Z,10.48
2022-11-27T00:08:34.689Z,11.05
2022-11-27T00:11:07.471Z,9.90
2022-11-27T00:13:34.197Z,11.15
2022-11-27T00:16:01.022Z,11.05
2022-11-27T00:18:28.126Z,12.30
2022-11-27T00:20:54.836Z,10.90
2022-11-27T00:23:21.537Z,9.10
2022-11-27T00:25:52.666Z,9.77
2022-11-27T00:28:20.406Z,9.45
2022-11-27T00:30:47.457Z,8.63
2022-11-27T00:33:14.212Z,9.32
2022-11-27T00:35:41.304Z,7.43
2022-11-27T00:38:08.304Z,8.77
2022-11-27T00:40:35.510Z,8.07
2022-11-27T00:43:02.339Z,8.80
2022-11-27T00:45:29.094Z,9.15
2022-11-27T00:47:56.077Z,8.95
2022-11-27T00:50:22.822Z,7.45
2022-11-27T00:52:49.511Z,7.28
2022-11-27T00:55:16.265Z,7.53
2022-11-27T00:57:42.983Z,7.47
2022-11-27T01:00:10.258Z,9.32
2022-11-27T01:02:36.989Z,10.30
2022-11-27T01:05:03.866Z,10.00
2022-11-27T01:07:30.605Z,9.13
2022-11-27T01:09:57.295Z,9.40
2022-11-27T01:12:24.005Z,9.23
2022-11-27T01:14:50.725Z,6.60
2022-11-27T01:17:18.360Z,8.00
2022-11-27T01:19:45.176Z,7.93
2022-11-27T01:22:12.032Z,9.32
2022-11-27T01:24:39.151Z,7.75
2022-11-27T01:27:06.109Z,7.13
2022-11-27T01:29:32.771Z,7.32
2022-11-27T01:31:59.550Z,9.43
2022-11-27T01:34:26.360Z,7.65
2022-11-27T01:36:53.062Z,10.02
2022-11-27T01:39:21.287Z,7.55
2022-11-27T01:41:48.992Z,9.23
2022-11-27T01:44:24.606Z,7.43
2022-11-27T01:47:13.850Z,7.93
2022-11-27T01:49:45.167Z,7.73
2022-11-27T01:52:34.381Z,8.85
2022-11-27T01:55:25.796Z,7.85
2022-11-27T01:58:00.571Z,9.93
2022-11-27T02:00:27.559Z,9.70
2022-11-27T02:02:54.291Z,9.52
2022-11-27T02:05:24.707Z,9.77
2022-11-27T02:07:53.131Z,9.15
2022-11-27T02:10:20.540Z,9.90
2022-11-27T02:13:10.917Z,8.18
2022-11-27T02:15:48.505Z,9.82
2022-11-27T02:18:25.113Z,9.32
2022-11-27T02:20:59.797Z,8.88
2022-11-27T02:23:35.412Z,8.23
2022-11-27T02:26:25.652Z,9.20
2022-11-27T02:29:12.910Z,9.15
2022-11-27T02:32:04.625Z,7.57
2022-11-27T02:34:57.016Z,8.13
2022-11-27T02:37:39.557Z,8.15
2022-11-27T02:42:47.151Z,7.90
2022-11-27T02:45:17.358Z,9.80
2022-11-27T02:47:46.239Z,10.98
2022-11-27T02:50:19.322Z,9.20
2022-11-27T02:52:48.455Z,8.15
2022-11-27T02:55:18.931Z,7.72
2022-11-27T02:57:46.386Z,9.30
2022-11-27T03:00:14.048Z,7.15
2022-11-27T03:02:49.108Z,7.93
2022-11-27T03:05:19.898Z,7.75
2022-11-27T03:08:11.373Z,8.00
2022-11-27T03:10:52.048Z,8.15
2022-11-27T03:13:19.022Z,8.52
2022-11-27T03:16:24.520Z,7.95
2022-11-27T03:19:08.129Z,5.90
2022-11-27T03:21:39.475Z,6.80
2022-11-27T03:24:08.211Z,6.03
2022-11-27T03:26:35.709Z,6.55
2022-11-27T03:29:05.058Z,6.03
2022-11-27T03:31:31.936Z,5.63
2022-11-27T03:33:59.111Z,6.75
2022-11-27T03:36:25.892Z,6.35
2022-11-27T03:38:55.279Z,9.35
2022-11-27T03:41:37.052Z,6.30
2022-11-27T03:44:13.607Z,5.95
2022-11-27T03:46:54.888Z,6.00
2022-11-27T03:49:30.354Z,6.03
2022-11-27T03:52:04.380Z,8.63
2022-11-27T03:54:39.928Z,7.70
2022-11-27T03:57:30.506Z,7.07
2022-11-27T04:00:02.135Z,6.57
2022-11-27T04:02:38.281Z,7.30
2022-11-27T04:05:05.371Z,7.05
2022-11-27T04:07:32.128Z,6.43
2022-11-27T04:09:58.853Z,6.00
2022-11-27T04:12:25.565Z,7.53
2022-11-27T04:14:52.240Z,6.82
2022-11-27T04:17:18.964Z,6.05
2022-11-27T04:19:45.670Z,5.43
2022-11-27T04:22:12.439Z,8.50
2022-11-27T04:24:39.330Z,6.93
2022-11-27T04:27:06.214Z,5.45
2022-11-27T04:29:33.044Z,6.40
2022-11-27T04:31:59.734Z,6.88
2022-11-27T04:34:26.481Z,4.57
2022-11-27T04:36:53.192Z,7.20
2022-11-27T04:39:20.211Z,5.55
2022-11-27T04:41:47.039Z,6.70
2022-11-27T04:44:13.891Z,6.47
2022-11-27T04:46:40.792Z,5.85
2022-11-27T04:49:07.543Z,5.20
2022-11-27T04:51:34.434Z,4.43
2022-11-27T04:54:01.115Z,4.40
2022-11-27T04:56:27.875Z,6.65
2022-11-27T04:58:54.555Z,5.63
2022-11-27T05:01:21.332Z,4.40
2022-11-27T05:03:48.850Z,4.63
2022-11-27T05:06:15.797Z,4.63
2022-11-27T05:08:42.758Z,4.80
2022-11-27T05:11:13.079Z,5.40
2022-11-27T05:13:40.263Z,5.43
2022-11-27T05:16:07.714Z,5.78
2022-11-27T05:18:34.574Z,4.68
2022-11-27T05:21:07.473Z,5.03
2022-11-27T05:23:35.287Z,5.13
2022-11-27T05:26:03.493Z,5.65
2022-11-27T05:28:30.399Z,4.88
2022-11-27T05:30:57.285Z,6.90
2022-11-27T05:33:24.127Z,4.65
2022-11-27T05:35:50.816Z,4.38
2022-11-27T05:38:17.550Z,4.57
2022-11-27T05:40:44.267Z,4.35
2022-11-27T05:43:10.949Z,4.53
2022-11-27T05:45:38.148Z,5.30
2022-11-27T05:48:05.049Z,4.22
2022-11-27T05:50:32.107Z,5.43
2022-11-27T05:52:58.835Z,5.18
2022-11-27T05:55:25.603Z,4.65
2022-11-27T05:57:52.316Z,4.63
2022-11-27T06:00:19.199Z,5.47
2022-11-27T06:02:46.028Z,5.43
2022-11-27T06:05:12.785Z,5.78
2022-11-27T06:07:39.579Z,4.15
2022-11-27T06:10:06.811Z,5.20
2022-11-27T06:12:33.491Z,5.10
2022-11-27T06:15:00.226Z,4.40
2022-11-27T06:17:27.439Z,5.15
2022-11-27T06:19:54.302Z,4.88
2022-11-27T06:22:21.028Z,3.67
2022-11-27T06:24:47.886Z,5.30
2022-11-27T06:27:14.578Z,5.70
2022-11-27T06:29:41.394Z,5.13
2022-11-27T06:32:08.167Z,4.68
2022-11-27T06:34:34.907Z,5.22
2022-11-27T06:37:01.652Z,4.18
2022-11-27T06:39:28.493Z,4.70
2022-11-27T06:41:55.322Z,5.88
2022-11-27T06:44:22.059Z,3.63
2022-11-27T06:46:48.815Z,5.07
2022-11-27T06:49:15.491Z,3.72
2022-11-27T06:51:42.298Z,4.60
2022-11-27T06:54:08.986Z,6.32
2022-11-27T06:56:35.749Z,5.72
2022-11-27T06:59:02.578Z,5.07
2022-11-27T07:01:31.902Z,4.63
2022-11-27T07:03:59.187Z,4.78
2022-11-27T07:06:27.474Z,5.55
2022-11-27T07:08:55.003Z,4.72
2022-11-27T07:11:24.743Z,3.85
2022-11-27T07:13:54.000Z,4.75
2022-11-27T07:16:20.689Z,5.03
2022-11-27T07:18:50.304Z,5.68
2022-11-27T07:21:18.011Z,5.50
2022-11-27T07:23:45.339Z,4.65
2022-11-27T07:26:18.070Z,5.43
2022-11-27T07:28:45.475Z,5.70
2022-11-27T07:31:14.325Z,4.95
2022-11-27T07:33:41.201Z,6.65
2022-11-27T07:36:15.545Z,5.55
2022-11-27T07:38:42.729Z,7.10
2022-11-27T07:41:09.763Z,6.05
2022-11-27T07:43:37.210Z,6.38
2022-11-27T07:46:22.173Z,7.70
2022-11-27T07:48:49.145Z,8.48
2022-11-27T07:51:18.168Z,7.97
2022-11-27T07:53:45.363Z,9.27
2022-11-27T07:56:14.450Z,9.32
2022-11-27T07:58:41.315Z,6.43
2022-11-27T08:01:09.870Z,8.13
2022-11-27T08:03:36.878Z,5.20
2022-11-27T08:06:04.177Z,7.85
2022-11-27T08:08:31.135Z,7.78
2022-11-27T08:10:57.806Z,10.30
2022-11-27T08:13:24.500Z,8.70
2022-11-27T08:15:51.194Z,9.35
2022-11-27T08:18:18.474Z,9.80
2022-11-27T08:20:45.205Z,9.57
2022-11-27T08:23:11.907Z,13.85
2022-11-27T08:25:38.670Z,15.07
2022-11-27T08:28:05.423Z,21.20
2022-11-27T08:30:32.146Z,18.65
2022-11-27T08:32:58.838Z,17.48
2022-11-27T08:35:25.557Z,16.27
2022-11-27T08:37:52.479Z,16.30
2022-11-27T08:40:19.279Z,22.42
2022-11-27T08:42:45.999Z,20.58
2022-11-27T08:45:12.763Z,22.08
2022-11-27T08:47:39.467Z,14.23
2022-11-27T08:50:06.898Z,9.70
2022-11-27T08:52:33.632Z,6.18
2022-11-27T08:55:00.431Z,7.60
2022-11-27T08:57:27.247Z,4.30
2022-11-27T08:59:54.123Z,7.90
2022-11-27T09:02:20.832Z,4.60
2022-11-27T09:04:47.837Z,5.97
2022-11-27T09:07:17.754Z,4.93
2022-11-27T09:09:44.486Z,4.80
2022-11-27T09:12:11.190Z,4.35
2022-11-27T09:14:38.361Z,4.88
2022-11-27T09:17:05.174Z,6.18
2022-11-27T09:19:31.911Z,5.70
2022-11-27T09:21:59.455Z,5.38
2022-11-27T09:24:26.255Z,5.90
2022-11-27T09:26:52.941Z,5.72
2022-11-27T09:29:19.739Z,5.20
2022-11-27T09:31:46.566Z,6.95
2022-11-27T09:34:13.576Z,6.50
2022-11-27T09:36:40.258Z,5.07
2022-11-27T09:39:07.098Z,5.85
2022-11-27T09:41:49.082Z,5.38
2022-11-27T09:44:30.797Z,4.88
2022-11-27T09:47:01.275Z,7.85
2022-11-27T09:50:09.954Z,6.50
2022-11-27T09:52:41.697Z,5.50
2022-11-27T09:55:25.050Z,4.75
2022-11-27T09:58:31.025Z,6.13
2022-11-27T10:00:58.499Z,6.18
2022-11-27T10:03:27.671Z,6.78
2022-11-27T10:06:12.657Z,5.38
2022-11-27T10:08:47.331Z,5.43
2022-11-27T10:11:34.202Z,6.80
2022-11-27T10:14:41.569Z,6.53
2022-11-27T10:17:20.490Z,6.80
2022-11-27T10:20:09.842Z,7.28
2022-11-27T10:23:04.439Z,6.05
2022-11-27T10:25:45.130Z,6.18
2022-11-27T10:28:34.820Z,7.72
2022-11-27T10:31:10.396Z,8.00
2022-11-27T10:33:46.331Z,6.85
2022-11-27T10:36:22.135Z,5.82
2022-11-27T10:38:49.770Z,6.47
2022-11-27T10:41:49.732Z,7.03
2022-11-27T10:44:29.946Z,5.97
2022-11-27T10:47:05.767Z,6.65
2022-11-27T10:49:35.508Z,7.00
2022-11-27T10:52:02.179Z,7.55
2022-11-27T10:54:34.215Z,5.18
2022-11-27T10:57:25.138Z,6.80
2022-11-27T11:00:15.205Z,6.07
2022-11-27T11:02:42.200Z,6.93
2022-11-27T11:05:37.758Z,7.78
2022-11-27T11:08:20.006Z,6.30
2022-11-27T11:10:51.622Z,6.40
2022-11-27T11:13:29.535Z,9.50
2022-11-27T11:15:58.108Z,7.15
2022-11-27T11:18:28.333Z,6.50
2022-11-27T11:21:03.919Z,8.13
2022-11-27T11:23:32.305Z,5.70
2022-11-27T11:26:06.756Z,7.20
2022-11-27T11:28:40.583Z,8.00
2022-11-27T11:31:13.609Z,6.18
2022-11-27T11:33:50.582Z,6.80
2022-11-27T11:36:17.465Z,5.68
2022-11-27T11:38:46.752Z,6.50
2022-11-27T11:41:13.934Z,6.18
2022-11-27T11:43:41.654Z,5.40
2022-11-27T11:46:22.975Z,5.80
2022-11-27T11:49:06.536Z,6.75
2022-11-27T11:52:02.346Z,6.22
2022-11-27T11:54:47.140Z,7.63
2022-11-27T11:57:38.638Z,5.70
2022-11-27T12:00:31.505Z,6.93
2022-11-27T12:03:09.588Z,5.63
2022-11-27T12:05:54.211Z,6.50
2022-11-27T12:08:35.891Z,5.53
2022-11-27T12:11:02.563Z,6.65
2022-11-27T12:13:33.408Z,8.52
2022-11-27T12:16:48.493Z,7.20
2022-11-27T12:19:40.318Z,6.90
2022-11-27T12:22:15.990Z,8.80
2022-11-27T12:25:21.032Z,7.82
2022-11-27T12:28:26.518Z,8.48
2022-11-27T12:31:11.572Z,9.05
2022-11-27T12:34:11.456Z,8.68
2022-11-27T12:37:12.513Z,9.27
2022-11-27T12:39:55.362Z,7.72
2022-11-27T12:42:30.014Z,9.02
2022-11-27T12:45:03.780Z,9.05
2022-11-27T12:47:40.330Z,10.43
2022-11-27T12:50:27.314Z,9.23
2022-11-27T12:53:04.795Z,9.70
2022-11-27T12:55:33.817Z,10.82
2022-11-27T12:58:16.243Z,15.10
2022-11-27T13:00:43.777Z,9.85
2022-11-27T13:03:24.987Z,9.80
2022-11-27T13:05:54.886Z,12.00
2022-11-27T13:08:37.286Z,10.25
2022-11-27T13:11:11.346Z,10.55
2022-11-27T13:13:43.544Z,10.40
2022-11-27T13:16:24.731Z,11.38
2022-11-27T13:19:21.149Z,13.18
2022-11-27T13:21:49.199Z,11.43
2022-11-27T13:24:16.383Z,12.90
2022-11-27T13:27:05.727Z,11.77
2022-11-27T13:29:42.735Z,11.68
2022-11-27T13:32:16.598Z,13.35
2022-11-27T13:34:48.107Z,13.40
2022-11-27T13:37:34.282Z,12.63
2022-11-27T13:40:04.738Z,14.55
2022-11-27T13:42:37.167Z,13.18
2022-11-27T13:45:11.349Z,14.80
2022-11-27T13:47:43.863Z,14.63
2022-11-27T13:50:16.682Z,13.98
2022-11-27T13:53:04.308Z,15.65
2022-11-27T13:55:34.801Z,15.90
2022-11-27T13:58:02.708Z,14.48
2022-11-27T14:00:44.501Z,16.85
2022-11-27T14:03:30.167Z,17.85
2022-11-27T14:05:57.838Z,15.05
2022-11-27T14:08:26.707Z,16.77
2022-11-27T14:10:58.667Z,15.43
2022-11-27T14:13:45.227Z,14.55
2022-11-27T14:16:26.647Z,14.00
2022-11-27T14:18:56.561Z,16.33
2022-11-27T14:21:40.855Z,15.35
2022-11-27T14:24:29.480Z,16.73
2022-11-27T14:26:56.531Z,14.65
2022-11-27T14:29:25.625Z,16.05
2022-11-27T14:32:00.445Z,16.15
2022-11-27T14:34:33.730Z,16.67
2022-11-27T14:37:01.219Z,17.42
2022-11-27T14:39:39.807Z,16.30
2022-11-27T14:44:41.444Z,20.35
2022-11-27T14:47:08.414Z,21.17
2022-11-27T14:49:35.575Z,19.50
2022-11-27T14:52:12.004Z,17.92
2022-11-27T14:54:40.295Z,18.50
2022-11-27T14:57:14.045Z,19.50
2022-11-27T14:59:41.583Z,15.98
2022-11-27T15:02:11.639Z,19.67
2022-11-27T15:04:43.436Z,18.20
2022-11-27T15:07:20.211Z,17.98
2022-11-27T15:09:53.053Z,17.45
2022-11-27T15:12:27.811Z,20.10
2022-11-27T15:14:54.462Z,19.35
2022-11-27T15:17:27.289Z,19.80
2022-11-27T15:19:55.535Z,19.27
2022-11-27T15:22:23.487Z,16.27
2022-11-27T15:25:05.943Z,17.02
2022-11-27T15:27:44.021Z,20.48
2022-11-27T15:30:18.068Z,17.85
2022-11-27T15:32:51.493Z,21.83
2022-11-27T15:35:36.278Z,20.52
2022-11-27T15:38:17.488Z,21.17
2022-11-27T15:40:44.347Z,16.35
2022-11-27T15:43:16.259Z,20.10
2022-11-27T15:45:44.605Z,17.63
2022-11-27T15:48:16.745Z,16.75
2022-11-27T15:50:48.358Z,19.00
2022-11-27T15:53:17.980Z,19.60
2022-11-27T15:55:44.838Z,20.65
2022-11-27T15:58:11.668Z,17.25
2022-11-27T16:00:39.745Z,16.23
2022-11-27T16:03:06.585Z,15.75
2022-11-27T16:05:33.382Z,15.90
2022-11-27T16:08:00.306Z,17.20
2022-11-27T16:10:27.032Z,20.77
2022-11-27T16:12:55.338Z,16.25
2022-11-27T16:15:23.524Z,15.60
2022-11-27T16:17:50.886Z,17.70
2022-11-27T16:20:17.718Z,15.60
2022-11-27T16:22:44.447Z,20.15
2022-11-27T16:25:11.231Z,19.35
2022-11-27T16:27:37.935Z,24.30
2022-11-27T16:30:05.266Z,19.60
2022-11-27T16:32:32.081Z,18.10
2022-11-27T16:34:58.746Z,17.10
2022-11-27T16:37:25.481Z,23.42
2022-11-27T16:39:52.322Z,16.27
2022-11-27T16:42:19.081Z,26.10
2022-11-27T16:44:45.838Z,21.10
2022-11-27T16:47:12.704Z,18.38
2022-11-27T16:49:39.660Z,18.05
2022-11-27T16:52:06.435Z,18.95
2022-11-27T16:54:33.161Z,22.92
2022-11-27T16:56:59.948Z,16.23
2022-11-27T16:59:26.732Z,19.67
2022-11-27T17:01:53.535Z,20.58
2022-11-27T17:04:21.290Z,17.67
2022-11-27T17:06:49.207Z,18.70
2022-11-27T17:09:16.666Z,24.75
2022-11-27T17:11:48.281Z,19.40
2022-11-27T17:14:16.173Z,16.67
2022-11-27T17:16:43.196Z,17.77
2022-11-27T17:19:14.954Z,18.70
2022-11-27T17:21:42.471Z,16.15
2022-11-27T17:24:15.467Z,25.65
2022-11-27T17:26:43.703Z,26.17
2022-11-27T17:29:12.112Z,23.05
2022-11-27T17:31:39.784Z,19.85
2022-11-27T17:34:07.386Z,31.65
2022-11-27T17:36:37.234Z,19.98
2022-11-27T17:41:32.204Z,15.00
2022-11-27T17:43:59.059Z,15.43
2022-11-27T17:46:27.767Z,15.65
2022-11-27T17:48:57.968Z,16.67
2022-11-27T17:53:51.389Z,15.93
2022-11-27T17:56:20.393Z,15.13
2022-11-27T17:58:47.203Z,29.70
2022-11-27T18:01:20.176Z,16.98
2022-11-27T18:03:47.720Z,14.98
2022-11-27T18:06:16.666Z,16.15
2022-11-27T18:08:44.696Z,16.27
2022-11-27T18:11:21.009Z,16.35
2022-11-27T18:13:48.605Z,16.48
2022-11-27T18:16:19.869Z,16.23
2022-11-27T18:18:48.712Z,17.90
2022-11-27T18:21:18.811Z,18.27
2022-11-27T18:24:20.821Z,17.15
2022-11-27T18:27:00.616Z,17.13
2022-11-27T18:29:22.265Z,16.42
2022-11-27T18:31:50.823Z,31.30
2022-11-27T18:34:17.722Z,16.10
2022-11-27T18:36:45.775Z,17.27
2022-11-27T18:39:12.792Z,14.80
2022-11-27T18:41:39.635Z,16.80
2022-11-27T18:44:06.492Z,17.45
2022-11-27T18:46:33.685Z,18.55
2022-11-27T18:49:00.709Z,17.27
2022-11-27T18:51:27.664Z,15.80
2022-11-27T18:53:55.836Z,18.00
2022-11-27T18:56:26.046Z,16.48
2022-11-27T19:01:26.571Z,15.90
2022-11-27T19:03:53.981Z,16.90
2022-11-27T19:06:22.494Z,16.90
2022-11-27T19:08:49.511Z,17.63
2022-11-27T19:11:19.737Z,21.13
2022-11-27T19:16:15.604Z,16.60
2022-11-27T19:18:43.069Z,17.92
2022-11-27T19:21:11.310Z,18.70
2022-11-27T19:23:39.419Z,21.35
2022-11-27T19:26:09.016Z,19.10
2022-11-27T19:28:36.189Z,19.95
2022-11-27T19:31:05.461Z,21.02
2022-11-27T19:33:32.333Z,18.27
2022-11-27T19:36:01.000Z,18.45
2022-11-27T19:38:28.190Z,17.35
2022-11-27T19:40:55.128Z,18.17
2022-11-27T19:43:21.891Z,17.75
2022-11-27T19:45:48.733Z,19.02
2022-11-27T19:48:19.991Z,19.15
2022-11-27T19:50:51.630Z,19.77
2022-11-27T19:53:18.765Z,20.33
2022-11-27T19:55:53.029Z,18.55
2022-11-27T19:58:19.707Z,18.70
2022-11-27T20:00:46.546Z,22.83
2022-11-27T20:03:13.231Z,23.10
2022-11-27T20:05:39.935Z,19.25
2022-11-27T20:08:06.726Z,20.25
2022-11-27T20:10:33.606Z,20.33
2022-11-27T20:13:01.563Z,22.08
2022-11-27T20:15:29.150Z,20.48
2022-11-27T20:17:56.109Z,21.00
2022-11-27T20:20:22.891Z,23.13
2022-11-27T20:22:50.355Z,21.80
2022-11-27T20:25:19.980Z,23.02
2022-11-27T20:30:13.956Z,21.67
2022-11-27T20:32:40.677Z,24.92
2022-11-27T20:35:07.642Z,21.73
2022-11-27T20:37:34.893Z,21.75
2022-11-27T20:40:01.689Z,22.65
2022-11-27T20:45:05.103Z,22.52
2022-11-27T20:47:32.057Z,22.23
2022-11-27T20:49:58.817Z,24.25
2022-11-27T20:52:25.512Z,23.10
2022-11-27T20:54:52.227Z,23.10
2022-11-27T20:57:18.906Z,24.60
2022-11-27T20:59:45.649Z,23.80
2022-11-27T21:02:13.242Z,22.40
2022-11-27T21:04:40.036Z,24.85
2022-11-27T21:07:06.803Z,26.33
2022-11-27T21:09:33.802Z,25.83
2022-11-27T21:12:00.618Z,23.60
2022-11-27T21:14:27.411Z,23.80
2022-11-27T21:16:54.389Z,23.50
2022-11-27T21:19:26.358Z,23.98
2022-11-27T21:21:54.190Z,24.48
2022-11-27T21:24:22.614Z,22.38
2022-11-27T21:26:49.918Z,22.92
2022-11-27T21:29:16.775Z,22.23
2022-11-27T21:31:47.092Z,21.63
2022-11-27T21:34:14.705Z,21.95
2022-11-27T21:36:41.657Z,23.95
2022-11-27T21:39:11.331Z,27.90
2022-11-27T21:41:38.176Z,20.50
2022-11-27T21:44:05.423Z,21.92
2022-11-27T21:46:32.621Z,21.30
2022-11-27T21:49:01.143Z,21.10
2022-11-27T21:51:29.531Z,21.23
2022-11-27T21:53:57.536Z,22.45
2022-11-27T21:56:27.018Z,19.75
2022-11-27T21:58:53.808Z,20.52
2022-11-27T22:01:23.815Z,20.65
2022-11-27T22:06:22.360Z,20.88
2022-11-27T22:08:50.298Z,20.52
2022-11-27T22:11:23.803Z,19.45
2022-11-27T22:13:50.628Z,19.60
2022-11-27T22:16:21.110Z,17.75
2022-11-27T22:18:48.957Z,17.63
2022-11-27T22:21:16.806Z,17.05
2022-11-27T22:23:43.636Z,18.20
2022-11-27T22:26:18.475Z,16.92
2022-11-27T22:28:46.133Z,17.67
2022-11-27T22:31:14.165Z,20.13
2022-11-27T22:33:42.240Z,17.48
2022-11-27T22:36:21.513Z,18.33
2022-11-27T22:38:50.531Z,19.95
2022-11-27T22:41:17.896Z,21.63
2022-11-27T22:43:44.967Z,19.15
2022-11-27T22:46:18.217Z,18.85
2022-11-27T22:48:45.346Z,20.42
2022-11-27T22:51:12.827Z,21.33
2022-11-27T22:53:40.120Z,21.35
2022-11-27T22:56:10.438Z,17.40
2022-11-27T22:58:41.353Z,20.35
2022-11-27T23:01:20.823Z,22.60
2022-11-27T23:03:47.584Z,20.30
2022-11-27T23:06:16.225Z,19.85
2022-11-27T23:08:44.698Z,19.88
2022-11-27T23:11:21.281Z,20.30
2022-11-27T23:13:50.027Z,16.50
2022-11-27T23:16:18.407Z,16.92
2022-11-27T23:18:45.643Z,18.60
2022-11-27T23:21:15.621Z,18.35
2022-11-27T23:23:42.958Z,20.17
2022-11-27T23:26:18.069Z,16.88
2022-11-27T23:28:46.383Z,18.48
2022-11-27T23:31:29.574Z,17.00
2022-11-27T23:33:56.941Z,16.63
2022-11-27T23:36:23.714Z,16.02
2022-11-27T23:38:50.499Z,16.63
2022-11-27T23:41:21.154Z,18.23
2022-11-27T23:43:48.350Z,16.95
2022-11-27T23:46:17.435Z,17.92
2022-11-27T23:48:44.711Z,18.90
2022-11-27T23:51:20.508Z,19.02
2022-11-27T23:53:47.898Z,17.83
2022-11-27T23:56:17.841Z,17.98
2022-11-27T23:58:47.367Z,18.55
